createdAt,value
2023-02-27T00:00:30.357Z,22.09
2023-02-27T00:01:34.808Z,22.11
2023-02-27T00:02:38.928Z,22.1
2023-02-27T00:03:43.179Z,22.09
2023-02-27T00:04:47.358Z,22.06
2023-02-27T00:05:51.508Z,22.08
2023-02-27T00:06:55.628Z,22.08
2023-02-27T00:07:59.744Z,22.07
2023-02-27T00:09:03.957Z,22.06
2023-02-27T00:10:08.268Z,22.05
2023-02-27T00:11:12.449Z,22.04
2023-02-27T00:12:16.553Z,22.03
2023-02-27T00:13:20.659Z,22.02
2023-02-27T00:14:24.761Z,21.99
2023-02-27T00:15:28.912Z,21.99
2023-02-27T00:16:33.073Z,22.01
2023-02-27T00:17:37.201Z,22
2023-02-27T00:18:41.604Z,22
2023-02-27T00:19:45.907Z,21.98
2023-02-27T00:20:50.007Z,21.97
2023-02-27T00:21:54.089Z,21.95
2023-02-27T00:22:58.201Z,21.96
2023-02-27T00:24:02.332Z,21.94
2023-02-27T00:25:06.550Z,21.96
2023-02-27T00:26:10.690Z,21.95
2023-02-27T00:27:14.804Z,21.94
2023-02-27T00:28:18.923Z,21.93
2023-02-27T00:29:23.043Z,21.92
2023-02-27T00:30:27.179Z,21.91
2023-02-27T00:31:31.465Z,21.88
2023-02-27T00:32:35.638Z,21.88
2023-02-27T00:33:40.104Z,21.85
2023-02-27T00:34:44.221Z,21.87
2023-02-27T00:35:48.317Z,21.84
2023-02-27T00:36:52.430Z,21.83
2023-02-27T00:37:56.601Z,21.85
2023-02-27T00:39:00.753Z,21.85
2023-02-27T00:40:04.854Z,21.84
2023-02-27T00:41:08.973Z,21.81
2023-02-27T00:42:13.075Z,21.8
2023-02-27T00:43:17.264Z,21.81
2023-02-27T00:44:21.395Z,21.81
2023-02-27T00:45:25.516Z,21.78
2023-02-27T00:46:29.679Z,21.76
2023-02-27T00:47:33.899Z,21.8
2023-02-27T00:48:38.091Z,21.78
2023-02-27T00:49:42.204Z,21.77
2023-02-27T00:50:46.295Z,21.77
2023-02-27T00:51:50.399Z,21.76
2023-02-27T00:52:54.531Z,21.76
2023-02-27T00:53:58.664Z,21.76
2023-02-27T00:55:03.092Z,21.72
2023-02-27T00:56:07.227Z,21.74
2023-02-27T00:57:11.337Z,21.74
2023-02-27T00:58:15.507Z,21.71
2023-02-27T00:59:19.899Z,21.73
2023-02-27T01:00:24.044Z,21.72
2023-02-27T01:01:28.486Z,21.72
2023-02-27T01:02:32.696Z,21.7
2023-02-27T01:03:36.956Z,21.7
2023-02-27T01:04:41.062Z,21.69
2023-02-27T01:05:45.171Z,21.68
2023-02-27T01:06:49.346Z,21.68
2023-02-27T01:07:53.467Z,21.68
2023-02-27T01:08:57.635Z,21.65
2023-02-27T01:10:01.782Z,21.67
2023-02-27T01:11:05.924Z,21.65
2023-02-27T01:12:10.042Z,21.67
2023-02-27T01:13:14.161Z,21.64
2023-02-27T01:14:18.292Z,21.63
2023-02-27T01:15:22.407Z,21.64
2023-02-27T01:16:26.652Z,21.64
2023-02-27T01:17:30.968Z,21.61
2023-02-27T01:18:35.125Z,21.63
2023-02-27T01:19:39.278Z,21.61
2023-02-27T01:20:43.420Z,21.62
2023-02-27T01:21:47.547Z,21.62
2023-02-27T01:22:51.659Z,21.61
2023-02-27T01:23:55.772Z,21.6
2023-02-27T01:24:59.875Z,21.58
2023-02-27T01:26:04.006Z,21.57
2023-02-27T01:27:08.125Z,21.58
2023-02-27T01:28:12.356Z,21.58
2023-02-27T01:29:16.469Z,21.57
2023-02-27T01:30:20.692Z,21.56
2023-02-27T01:31:25.183Z,21.56
2023-02-27T01:32:30.613Z,21.54
2023-02-27T01:33:35.102Z,21.52
2023-02-27T01:34:39.195Z,21.51
2023-02-27T01:35:43.323Z,21.53
2023-02-27T01:36:47.435Z,21.5
2023-02-27T01:37:51.556Z,21.53
2023-02-27T01:38:55.667Z,21.5
2023-02-27T01:39:59.767Z,21.52
2023-02-27T01:41:03.945Z,21.51
2023-02-27T01:42:08.069Z,21.51
2023-02-27T01:43:13.992Z,21.51
2023-02-27T01:44:18.093Z,21.5
2023-02-27T01:45:22.215Z,21.49
2023-02-27T01:46:26.324Z,21.51
2023-02-27T01:47:30.421Z,21.51
2023-02-27T01:48:34.518Z,21.5
2023-02-27T01:49:38.623Z,21.48
2023-02-27T01:50:42.731Z,21.47
2023-02-27T01:51:46.834Z,21.45
2023-02-27T01:52:50.918Z,21.48
2023-02-27T01:53:55.139Z,21.46
2023-02-27T01:54:59.256Z,21.46
2023-02-27T01:56:03.362Z,21.43
2023-02-27T01:57:07.529Z,21.46
2023-02-27T01:58:11.621Z,21.44
2023-02-27T01:59:15.777Z,21.45
2023-02-27T02:00:19.870Z,21.44
2023-02-27T02:01:24.153Z,21.43
2023-02-27T02:02:29.451Z,21.43
2023-02-27T02:03:33.673Z,21.43
2023-02-27T02:04:37.789Z,21.4
2023-02-27T02:05:41.923Z,21.42
2023-02-27T02:06:46.050Z,21.41
2023-02-27T02:07:50.155Z,21.4
2023-02-27T02:08:54.287Z,21.37
2023-02-27T02:09:58.433Z,21.36
2023-02-27T02:11:02.539Z,21.39
2023-02-27T02:12:06.644Z,21.37
2023-02-27T02:13:10.732Z,21.35
2023-02-27T02:14:14.859Z,21.37
2023-02-27T02:15:19.179Z,21.36
2023-02-27T02:16:23.317Z,21.34
2023-02-27T02:17:27.555Z,21.35
2023-02-27T02:18:31.655Z,21.35
2023-02-27T02:19:35.779Z,21.34
2023-02-27T02:20:40.039Z,21.34
2023-02-27T02:21:44.179Z,21.34
2023-02-27T02:22:48.271Z,21.34
2023-02-27T02:23:52.439Z,21.33
2023-02-27T02:24:56.578Z,21.31
2023-02-27T02:26:00.664Z,21.33
2023-02-27T02:27:04.790Z,21.33
2023-02-27T02:28:08.921Z,21.3
2023-02-27T02:29:13.051Z,21.32
2023-02-27T02:30:17.204Z,21.31
2023-02-27T02:31:21.413Z,21.31
2023-02-27T02:32:26.113Z,21.31
2023-02-27T02:33:30.365Z,21.3
2023-02-27T02:34:34.459Z,21.29
2023-02-27T02:35:38.622Z,21.26
2023-02-27T02:36:42.731Z,21.26
2023-02-27T02:37:46.838Z,21.25
2023-02-27T02:38:50.946Z,21.24
2023-02-27T02:39:55.064Z,21.26
2023-02-27T02:40:59.206Z,21.23
2023-02-27T02:42:03.323Z,21.22
2023-02-27T02:43:07.439Z,21.22
2023-02-27T02:44:11.530Z,21.21
2023-02-27T02:45:15.624Z,21.24
2023-02-27T02:46:19.849Z,21.23
2023-02-27T02:47:24.053Z,21.2
2023-02-27T02:48:28.186Z,21.21
2023-02-27T02:49:32.277Z,21.2
2023-02-27T02:50:36.377Z,21.2
2023-02-27T02:51:40.490Z,21.2
2023-02-27T02:52:44.587Z,21.2
2023-02-27T02:53:48.718Z,21.2
2023-02-27T02:54:52.816Z,21.18
2023-02-27T02:55:56.920Z,21.17
2023-02-27T02:57:01.063Z,21.18
2023-02-27T02:58:05.169Z,21.17
2023-02-27T02:59:09.281Z,21.16
2023-02-27T03:00:13.416Z,21.16
2023-02-27T03:01:17.597Z,21.16
2023-02-27T03:02:21.891Z,21.16
2023-02-27T03:03:26.087Z,21.16
2023-02-27T03:04:30.299Z,21.16
2023-02-27T03:05:34.580Z,21.16
2023-02-27T03:06:38.716Z,21.16
2023-02-27T03:07:42.886Z,21.16
2023-02-27T03:08:47.151Z,21.14
2023-02-27T03:09:51.255Z,21.17
2023-02-27T03:10:55.338Z,21.2
2023-02-27T03:11:59.469Z,21.22
2023-02-27T03:13:03.727Z,21.25
2023-02-27T03:14:07.874Z,21.29
2023-02-27T03:15:11.989Z,21.32
2023-02-27T03:16:16.325Z,21.36
2023-02-27T03:17:20.417Z,21.38
2023-02-27T03:18:24.644Z,21.45
2023-02-27T03:19:28.793Z,21.47
2023-02-27T03:20:32.926Z,21.49
2023-02-27T03:21:37.029Z,21.5
2023-02-27T03:22:41.263Z,21.55
2023-02-27T03:23:45.423Z,21.55
2023-02-27T03:24:49.536Z,21.59
2023-02-27T03:25:53.634Z,21.61
2023-02-27T03:27:00.790Z,21.62
2023-02-27T03:28:04.898Z,21.66
2023-02-27T03:29:09.019Z,21.67
2023-02-27T03:30:13.358Z,21.67
2023-02-27T03:31:17.583Z,21.7
2023-02-27T03:32:22.017Z,21.75
2023-02-27T03:33:26.305Z,21.64
2023-02-27T03:34:30.446Z,21.77
2023-02-27T03:35:34.539Z,21.78
2023-02-27T03:36:38.635Z,21.81
2023-02-27T03:37:42.746Z,21.84
2023-02-27T03:38:46.877Z,21.85
2023-02-27T03:39:50.968Z,21.89
2023-02-27T03:40:55.076Z,21.9
2023-02-27T03:41:59.205Z,21.95
2023-02-27T03:43:03.318Z,21.97
2023-02-27T03:44:07.422Z,21.98
2023-02-27T03:45:11.573Z,21.99
2023-02-27T03:46:15.701Z,22.01
2023-02-27T03:47:19.878Z,22.02
2023-02-27T03:48:24.012Z,22.08
2023-02-27T03:49:28.132Z,22.09
2023-02-27T03:50:32.244Z,22.11
2023-02-27T03:51:36.361Z,22.13
2023-02-27T03:52:40.567Z,22.13
2023-02-27T03:53:44.722Z,22.18
2023-02-27T03:54:48.887Z,22.2
2023-02-27T03:55:53.030Z,22.19
2023-02-27T03:56:57.136Z,22.25
2023-02-27T03:58:01.249Z,22.29
2023-02-27T03:59:05.363Z,22.31
2023-02-27T04:00:09.482Z,22.33
2023-02-27T04:01:13.587Z,22.32
2023-02-27T04:02:17.678Z,22.33
2023-02-27T04:03:21.784Z,22.34
2023-02-27T04:04:25.937Z,22.41
2023-02-27T04:05:30.055Z,22.42
2023-02-27T04:06:34.165Z,22.43
2023-02-27T04:07:38.271Z,22.46
2023-02-27T04:08:42.372Z,22.43
2023-02-27T04:09:46.493Z,22.47
2023-02-27T04:10:50.725Z,22.47
2023-02-27T04:11:54.878Z,22.51
2023-02-27T04:12:58.976Z,22.54
2023-02-27T04:14:03.079Z,22.58
2023-02-27T04:15:07.216Z,22.61
2023-02-27T04:16:11.394Z,22.63
2023-02-27T04:17:15.712Z,22.68
2023-02-27T04:18:19.937Z,22.66
2023-02-27T04:19:24.051Z,22.69
2023-02-27T04:20:28.217Z,22.69
2023-02-27T04:21:32.308Z,22.74
2023-02-27T04:22:36.409Z,22.73
2023-02-27T04:23:40.700Z,22.75
2023-02-27T04:24:44.827Z,22.76
2023-02-27T04:25:48.948Z,22.75
2023-02-27T04:26:53.058Z,22.72
2023-02-27T04:27:57.195Z,22.74
2023-02-27T04:29:01.319Z,22.68
2023-02-27T04:30:05.482Z,22.71
2023-02-27T04:31:09.702Z,22.66
2023-02-27T04:32:14.206Z,22.67
2023-02-27T04:33:18.725Z,22.63
2023-02-27T04:34:22.834Z,22.6
2023-02-27T04:35:26.919Z,22.57
2023-02-27T04:36:31.032Z,22.59
2023-02-27T04:37:35.138Z,22.57
2023-02-27T04:38:39.236Z,22.62
2023-02-27T04:39:43.346Z,22.6
2023-02-27T04:40:47.485Z,22.65
2023-02-27T04:41:51.603Z,22.66
2023-02-27T04:42:55.706Z,22.69
2023-02-27T04:43:59.792Z,22.71
2023-02-27T04:45:03.873Z,22.7
2023-02-27T04:46:08.175Z,22.7
2023-02-27T04:47:12.463Z,22.67
2023-02-27T04:48:16.602Z,22.66
2023-02-27T04:49:20.729Z,22.66
2023-02-27T04:50:24.857Z,22.65
2023-02-27T04:51:29.222Z,22.7
2023-02-27T04:52:33.558Z,22.68
2023-02-27T04:53:37.704Z,22.68
2023-02-27T04:54:41.854Z,22.72
2023-02-27T04:55:45.994Z,22.72
2023-02-27T04:56:50.110Z,22.77
2023-02-27T04:57:54.216Z,22.8
2023-02-27T04:58:58.323Z,22.82
2023-02-27T05:00:02.468Z,22.89
2023-02-27T05:01:06.589Z,22.91
2023-02-27T05:02:10.846Z,22.93
2023-02-27T05:03:15.365Z,22.95
2023-02-27T05:04:19.468Z,22.92
2023-02-27T05:05:23.569Z,22.92
2023-02-27T05:06:27.654Z,22.95
2023-02-27T05:07:31.750Z,22.95
2023-02-27T05:08:35.902Z,22.89
2023-02-27T05:09:40.038Z,22.93
2023-02-27T05:10:44.168Z,22.92
2023-02-27T05:11:48.283Z,22.86
2023-02-27T05:12:52.380Z,22.82
2023-02-27T05:13:56.529Z,22.83
2023-02-27T05:15:00.636Z,22.83
2023-02-27T05:16:04.907Z,22.8
2023-02-27T05:17:09.386Z,22.78
2023-02-27T05:18:13.606Z,22.8
2023-02-27T05:19:17.966Z,22.77
2023-02-27T05:20:22.073Z,22.8
2023-02-27T05:21:26.579Z,22.8
2023-02-27T05:22:32.200Z,22.82
2023-02-27T05:23:36.342Z,22.86
2023-02-27T05:24:40.486Z,22.85
2023-02-27T05:25:44.597Z,22.88
2023-02-27T05:26:48.738Z,22.94
2023-02-27T05:27:52.877Z,22.94
2023-02-27T05:28:57.093Z,22.97
2023-02-27T05:30:01.192Z,22.97
2023-02-27T05:31:05.301Z,22.97
2023-02-27T05:32:09.544Z,23.01
2023-02-27T05:33:14.086Z,23.03
2023-02-27T05:34:18.272Z,23.06
2023-02-27T05:35:22.393Z,23.08
2023-02-27T05:36:26.502Z,23.09
2023-02-27T05:37:30.616Z,23.09
2023-02-27T05:38:34.798Z,23.08
2023-02-27T05:39:38.908Z,23.04
2023-02-27T05:40:43.110Z,23.01
2023-02-27T05:41:47.228Z,23
2023-02-27T05:42:51.465Z,22.94
2023-02-27T05:43:55.587Z,22.95
2023-02-27T05:44:59.731Z,22.95
2023-02-27T05:46:03.891Z,22.89
2023-02-27T05:47:08.195Z,22.9
2023-02-27T05:48:12.334Z,22.87
2023-02-27T05:49:16.452Z,22.84
2023-02-27T05:50:20.619Z,22.83
2023-02-27T05:51:24.872Z,22.82
2023-02-27T05:52:30.026Z,22.78
2023-02-27T05:53:34.202Z,22.78
2023-02-27T05:54:38.313Z,22.76
2023-02-27T05:55:42.452Z,22.76
2023-02-27T05:56:46.593Z,22.74
2023-02-27T05:57:50.708Z,22.7
2023-02-27T05:58:54.811Z,22.65
2023-02-27T05:59:58.944Z,22.66
2023-02-27T06:01:03.053Z,22.62
2023-02-27T06:02:07.262Z,22.63
2023-02-27T06:03:11.588Z,22.61
2023-02-27T06:04:15.950Z,22.58
2023-02-27T06:05:20.060Z,22.58
2023-02-27T06:06:24.161Z,22.54
2023-02-27T06:07:29.174Z,22.53
2023-02-27T06:08:33.326Z,22.52
2023-02-27T06:09:37.496Z,22.51
2023-02-27T06:10:41.612Z,22.47
2023-02-27T06:11:45.725Z,22.47
2023-02-27T06:12:49.828Z,22.45
2023-02-27T06:13:53.958Z,22.43
2023-02-27T06:14:58.088Z,22.44
2023-02-27T06:16:02.188Z,22.42
2023-02-27T06:17:06.318Z,22.41
2023-02-27T06:18:10.605Z,22.39
2023-02-27T06:19:14.729Z,22.38
2023-02-27T06:20:18.850Z,22.37
2023-02-27T06:21:22.964Z,22.36
2023-02-27T06:22:27.077Z,22.33
2023-02-27T06:23:31.224Z,22.33
2023-02-27T06:24:35.346Z,22.3
2023-02-27T06:25:39.566Z,22.31
2023-02-27T06:26:43.667Z,22.28
2023-02-27T06:27:47.764Z,22.3
2023-02-27T06:28:51.883Z,22.28
2023-02-27T06:29:56.008Z,22.28
2023-02-27T06:31:00.233Z,22.27
2023-02-27T06:32:04.574Z,22.27
2023-02-27T06:33:08.762Z,22.26
2023-02-27T06:34:12.897Z,22.25
2023-02-27T06:35:17.074Z,22.24
2023-02-27T06:36:21.195Z,22.23
2023-02-27T06:37:25.312Z,22.22
2023-02-27T06:38:29.398Z,22.2
2023-02-27T06:39:33.492Z,22.18
2023-02-27T06:40:37.612Z,22.17
2023-02-27T06:41:41.770Z,22.17
2023-02-27T06:42:45.881Z,22.17
2023-02-27T06:43:50.041Z,22.13
2023-02-27T06:44:54.337Z,22.15
2023-02-27T06:45:58.541Z,22.13
2023-02-27T06:47:02.880Z,22.12
2023-02-27T06:48:07.018Z,22.13
2023-02-27T06:49:11.188Z,22.1
2023-02-27T06:50:15.322Z,22.12
2023-02-27T06:51:19.442Z,22.12
2023-02-27T06:52:23.593Z,22.09
2023-02-27T06:53:27.701Z,22.09
2023-02-27T06:54:31.835Z,22.1
2023-02-27T06:55:35.961Z,22.1
2023-02-27T06:56:40.103Z,22.09
2023-02-27T06:57:44.267Z,22.08
2023-02-27T06:58:48.386Z,22.07
2023-02-27T06:59:52.638Z,22.06
2023-02-27T07:00:56.781Z,22.05
2023-02-27T07:02:00.892Z,22.05
2023-02-27T07:03:05.041Z,22.02
2023-02-27T07:04:09.163Z,22.03
2023-02-27T07:05:13.297Z,22.03
2023-02-27T07:06:17.457Z,22
2023-02-27T07:07:33.782Z,22.01
2023-02-27T07:09:00.913Z,22
2023-02-27T07:10:10.237Z,21.99
2023-02-27T07:11:14.447Z,21.98
2023-02-27T07:12:18.540Z,21.97
2023-02-27T07:13:22.670Z,21.97
2023-02-27T07:14:26.780Z,21.96
2023-02-27T07:15:30.927Z,21.93
2023-02-27T07:16:35.227Z,21.93
2023-02-27T07:17:39.360Z,21.91
2023-02-27T07:18:43.503Z,21.94
2023-02-27T07:19:47.688Z,21.93
2023-02-27T07:20:51.815Z,21.9
2023-02-27T07:21:55.975Z,21.89
2023-02-27T07:23:00.085Z,21.91
2023-02-27T07:24:04.248Z,21.91
2023-02-27T07:25:08.365Z,21.9
2023-02-27T07:26:12.493Z,21.89
2023-02-27T07:27:16.607Z,21.87
2023-02-27T07:28:20.866Z,21.86
2023-02-27T07:29:25.123Z,21.83
2023-02-27T07:30:29.246Z,21.85
2023-02-27T07:31:33.446Z,21.84
2023-02-27T07:32:37.857Z,21.85
2023-02-27T07:33:41.950Z,21.84
2023-02-27T07:34:46.067Z,21.83
2023-02-27T07:35:50.215Z,21.83
2023-02-27T07:36:54.455Z,21.82
2023-02-27T07:37:58.572Z,21.81
2023-02-27T07:39:02.672Z,21.81
2023-02-27T07:40:06.785Z,21.8
2023-02-27T07:41:18.516Z,21.75
2023-02-27T07:42:33.982Z,21.79
2023-02-27T07:43:38.113Z,21.78
2023-02-27T07:44:42.253Z,21.78
2023-02-27T07:45:46.671Z,21.77
2023-02-27T07:46:50.855Z,21.75
2023-02-27T07:47:55.175Z,21.77
2023-02-27T07:48:59.324Z,21.76
2023-02-27T07:50:04.640Z,21.75
2023-02-27T07:51:08.867Z,21.71
2023-02-27T07:52:12.996Z,21.74
2023-02-27T07:53:17.121Z,21.73
2023-02-27T07:54:21.251Z,21.69
2023-02-27T07:55:25.573Z,21.69
2023-02-27T07:56:30.016Z,21.71
2023-02-27T07:57:34.449Z,21.7
2023-02-27T07:58:38.611Z,21.67
2023-02-27T07:59:42.732Z,21.69
2023-02-27T08:00:46.859Z,21.67
2023-02-27T08:01:50.998Z,21.69
2023-02-27T08:02:55.178Z,21.68
2023-02-27T08:03:59.460Z,21.67
2023-02-27T08:05:03.667Z,21.66
2023-02-27T08:06:07.782Z,21.66
2023-02-27T08:07:11.892Z,21.65
2023-02-27T08:08:15.999Z,21.62
2023-02-27T08:09:20.134Z,21.65
2023-02-27T08:10:24.268Z,21.64
2023-02-27T08:11:28.931Z,21.64
2023-02-27T08:12:33.466Z,21.61
2023-02-27T08:15:11.763Z,21.61
2023-02-27T08:16:15.937Z,21.62
2023-02-27T08:17:20.133Z,21.6
2023-02-27T08:18:24.263Z,21.62
2023-02-27T08:19:28.405Z,21.61
2023-02-27T08:20:32.541Z,21.61
2023-02-27T08:21:36.638Z,21.61
2023-02-27T08:22:40.748Z,21.61
2023-02-27T08:23:44.899Z,21.58
2023-02-27T08:24:49.021Z,21.59
2023-02-27T08:25:53.144Z,21.59
2023-02-27T08:26:57.290Z,21.57
2023-02-27T08:28:01.469Z,21.58
2023-02-27T08:29:05.612Z,21.55
2023-02-27T08:30:09.741Z,21.54
2023-02-27T08:31:14.312Z,21.56
2023-02-27T08:32:18.765Z,21.57
2023-02-27T08:33:22.999Z,21.54
2023-02-27T08:34:27.131Z,21.56
2023-02-27T08:35:31.277Z,21.52
2023-02-27T08:36:35.598Z,21.55
2023-02-27T08:37:39.792Z,21.54
2023-02-27T08:38:43.948Z,21.54
2023-02-27T08:39:48.048Z,21.53
2023-02-27T08:40:52.178Z,21.51
2023-02-27T08:41:56.322Z,21.51
2023-02-27T08:43:00.443Z,21.53
2023-02-27T08:44:04.560Z,21.53
2023-02-27T08:45:08.903Z,21.52
2023-02-27T08:46:13.154Z,21.5
2023-02-27T08:47:17.456Z,21.52
2023-02-27T08:48:21.578Z,21.51
2023-02-27T08:49:25.720Z,21.51
2023-02-27T08:50:29.874Z,21.49
2023-02-27T08:51:34.068Z,21.48
2023-02-27T08:52:38.243Z,21.48
2023-02-27T08:53:42.360Z,21.49
2023-02-27T08:54:46.512Z,21.47
2023-02-27T08:55:50.644Z,21.49
2023-02-27T08:56:54.734Z,21.46
2023-02-27T08:57:58.857Z,21.47
2023-02-27T08:59:02.988Z,21.45
2023-02-27T09:00:07.151Z,21.46
2023-02-27T09:01:11.595Z,21.43
2023-02-27T09:02:16.322Z,21.43
2023-02-27T09:03:20.577Z,21.4
2023-02-27T09:04:24.816Z,21.41
2023-02-27T09:05:33.190Z,21.41
2023-02-27T09:06:37.895Z,21.4
2023-02-27T09:07:42.025Z,21.37
2023-02-27T09:08:46.228Z,21.38
2023-02-27T09:09:50.390Z,21.37
2023-02-27T09:10:54.591Z,21.37
2023-02-27T09:11:58.706Z,21.27
2023-02-27T09:13:02.821Z,21.36
2023-02-27T09:14:07.374Z,21.36
2023-02-27T09:15:13.160Z,21.35
2023-02-27T09:16:17.363Z,21.35
2023-02-27T09:17:21.568Z,21.34
2023-02-27T09:18:25.768Z,21.34
